Flight Track Log - Related Links

Times and Time Zones

All times are in EDT time to prevent confusion due to time zone crossing. See the EGF2749 flight status page for this flight to view local times or setup timezone preferences in your user account.

Time Position Orientation Groundspeed Altitude Reporting Facility
EDT Latitude Longitude Course Direction KTS MPH feet Rate Location/Type
Fri 05:53:50 PM 32.4314 -93.8200 270° West 162 186 700  Level Fort Worth Center
Fri 05:54:27 PM 32.4100 -93.7986 140° Southeast 169 194 1,800 2,143 Climbing Fort Worth Center
Fri 05:55:28 PM 32.3797 -93.8417 230° Southwest 223 257 4,200 1,969 Climbing Fort Worth Center
Fri 05:56:00 PM 32.4333 -94.1020 270° West  Level FlightAware Approximate
Fri 05:56:35 PM 32.3844 -93.9275 274° West 232 267 6,000  Level Fort Worth Center
Fri 05:57:00 PM 32.4270 -94.1967 263° West  Level FlightAware Approximate
Fri 05:57:58 PM 32.3917 -94.0453 274° West 272 313 9,100  Level Fort Worth Center
Fri 05:58:00 PM 32.4176 -94.2911 263° West  Level FlightAware Approximate
Fri 05:58:58 PM 32.3939 -94.1239 272° West 267 307 10,700  Level Fort Worth Center
Fri 05:59:00 PM 32.4167 -94.3862 270° West  Level FlightAware Approximate
Fri 05:59:58 PM 32.4006 -94.2247 275° West 280 322 11,800  Level Fort Worth Center
Fri 06:00:58 PM 32.4028 -94.3156 272° West 302 348 13,000 1,350 Climbing Fort Worth Center
Fri 06:01:58 PM 32.4078 -94.4311 273° West 317 365 14,500 1,400 Climbing Fort Worth Center
Fri 06:02:58 PM 32.4100 -94.5269 272° West 329 379 15,800 1,500 Climbing Fort Worth Center
Fri 06:03:58 PM 32.4147 -94.6497 273° West 329 379 17,500 1,550 Climbing Fort Worth Center
Fri 06:04:58 PM 32.4147 -94.7483 270° West 329 379 18,900 1,250 Climbing Fort Worth Center
Fri 06:05:58 PM 32.3964 -94.8594 259° West 336 387 20,000 550 Climbing Fort Worth Center
Fri 06:06:58 PM 32.3272 -94.9622 231° Southwest 360 414 20,000  Level Fort Worth Center
Fri 06:07:58 PM 32.2583 -95.0672 232° Southwest 389 448 20,000  Level Fort Worth Center
Fri 06:08:58 PM 32.1750 -95.1872 231° Southwest 417 480 20,000  Level Fort Worth Center
Fri 06:09:58 PM 32.1036 -95.2894 231° Southwest 422 486 20,000  Level Fort Worth Center
Fri 06:10:58 PM 32.0364 -95.3892 232° Southwest 412 474 20,000  Level Fort Worth Center
Fri 06:11:58 PM 31.9689 -95.4861 231° Southwest 399 459 20,000  Level Fort Worth Center
Fri 06:12:58 PM 31.9142 -95.5900 238° Southwest 394 453 20,000  Level Fort Worth Center
Fri 06:13:58 PM 31.9511 -95.6922 293° West 345 397 20,000  Level Fort Worth Center
Fri 06:14:58 PM 31.9983 -95.8014 297° West 352 405 20,000  Level Fort Worth Center
Fri 06:15:58 PM 32.0500 -95.9083 300° West 365 420 20,000  Level Fort Worth Center
Fri 06:16:58 PM 32.0969 -96.0181 297° West 372 428 20,000  Level Fort Worth Center
Fri 06:17:58 PM 32.1461 -96.1253 298° West 377 434 20,000  Level Fort Worth Center
Fri 06:18:58 PM 32.1975 -96.2325 300° West 377 434 20,000 -1,200 Level Fort Worth Center
Fri 06:19:58 PM 32.2692 -96.3175 315° West 368 423 17,600 -2,050 Descending Fort Worth Center
Fri 06:20:58 PM 32.3408 -96.4003 316° Northwest 368 423 15,900 -1,700 Descending Fort Worth Center
Fri 06:21:58 PM 32.4083 -96.4808 315° West 356 410 14,200 -1,650 Descending Fort Worth Center
Fri 06:22:58 PM 32.4714 -96.5589 314° West 345 397 12,600 -1,500 Descending Fort Worth Center
Fri 06:23:58 PM 32.5344 -96.6322 316° Northwest 331 381 11,200 -800 Descending Fort Worth Center
Fri 06:24:58 PM 32.5933 -96.7008 316° Northwest 312 359 11,000 -100 Descending Fort Worth Center
Fri 06:25:58 PM 32.6500 -96.7694 314° West 299 344 11,000  Level Fort Worth Center
Fri 06:26:58 PM 32.7089 -96.8381 316° Northwest 299 344 11,000  Level Fort Worth Center
Fri 06:27:58 PM 32.7614 -96.8994 315° West 287 330 11,000 -435 Level Fort Worth Center
Fri 06:29:02 PM 32.8500 -96.9000 360° North 266 306 10,100 -1,171 Descending Dallas / Fort Worth TRACON
Fri 06:30:01 PM 32.9167 -96.9000 360° North 259 298 8,600 -1,462 Descending Dallas / Fort Worth TRACON
Fri 06:31:01 PM 33.0000 -96.9000 360° North 255 293 7,200 -1,304 Descending Dallas / Fort Worth TRACON
Fri 06:31:56 PM 33.0500 -96.9167 344° North 237 273 6,100 -1,600 Descending Dallas / Fort Worth TRACON
Fri 06:33:01 PM 33.1000 -96.9833 312° West 242 278 4,000 -1,938 Descending Dallas / Fort Worth TRACON

Login

Don't have an account? Register now (free) for customized features, flight alerts, and more!